createdAt,value
2023-03-03T00:00:12.881Z,1.80
2023-03-03T00:01:13.993Z,2.00
2023-03-03T00:02:13.318Z,2.00
2023-03-03T00:03:13.304Z,1.70
2023-03-03T00:04:13.304Z,2.00
2023-03-03T00:05:13.206Z,1.70
2023-03-03T00:06:13.136Z,1.50
2023-03-03T00:07:13.076Z,1.50
2023-03-03T00:08:18.358Z,1.70
2023-03-03T00:09:13.275Z,1.70
2023-03-03T00:10:13.333Z,1.70
2023-03-03T00:11:13.238Z,2.10
2023-03-03T00:12:13.185Z,2.20
2023-03-03T00:13:13.276Z,1.60
2023-03-03T00:14:13.260Z,1.70
2023-03-03T00:15:13.167Z,1.90
2023-03-03T00:16:13.113Z,1.80
2023-03-03T00:17:12.977Z,1.70
2023-03-03T00:18:13.204Z,1.80
2023-03-03T00:19:13.084Z,1.60
2023-03-03T00:20:13.185Z,1.60
2023-03-03T00:21:13.842Z,1.80
2023-03-03T00:22:13.861Z,1.60
2023-03-03T00:23:13.730Z,1.60
2023-03-03T00:24:14.015Z,1.60
2023-03-03T00:25:13.195Z,1.70
2023-03-03T00:26:13.422Z,1.50
2023-03-03T00:27:13.436Z,1.50
2023-03-03T00:28:13.875Z,1.50
2023-03-03T00:29:14.262Z,1.40
2023-03-03T00:30:13.400Z,1.70
2023-03-03T00:31:13.341Z,1.70
2023-03-03T00:32:13.580Z,1.70
2023-03-03T00:33:13.701Z,1.60
2023-03-03T00:34:13.638Z,1.70
2023-03-03T00:35:13.643Z,1.60
2023-03-03T00:36:13.518Z,1.60
2023-03-03T00:37:13.727Z,1.70
2023-03-03T00:38:13.655Z,1.80
2023-03-03T00:39:13.904Z,2.00
2023-03-03T00:40:13.226Z,1.90
2023-03-03T00:41:13.623Z,1.80
2023-03-03T00:42:13.973Z,1.70
2023-03-03T00:43:12.936Z,1.70
2023-03-03T00:44:13.092Z,1.70
2023-03-03T00:45:13.199Z,1.90
2023-03-03T00:46:13.311Z,1.70
2023-03-03T00:47:13.398Z,1.70
2023-03-03T00:48:13.328Z,1.60
2023-03-03T00:49:13.307Z,1.70
2023-03-03T00:50:13.404Z,1.90
2023-03-03T00:51:13.338Z,1.90
2023-03-03T00:52:13.529Z,1.80
2023-03-03T00:53:13.428Z,1.60
2023-03-03T00:54:13.348Z,1.70
2023-03-03T00:55:13.505Z,1.70
2023-03-03T00:56:13.478Z,2.00
2023-03-03T00:57:13.470Z,1.60
2023-03-03T00:58:13.404Z,1.50
2023-03-03T00:59:13.385Z,1.60
2023-03-03T01:00:13.385Z,1.60
2023-03-03T01:01:13.317Z,1.80
2023-03-03T01:02:13.754Z,2.10
2023-03-03T01:03:13.875Z,1.80
2023-03-03T01:04:13.736Z,1.70
2023-03-03T01:05:13.776Z,1.90
2023-03-03T01:06:13.836Z,1.70
2023-03-03T01:07:14.914Z,1.70
2023-03-03T01:08:20.942Z,1.90
2023-03-03T01:09:13.225Z,2.00
2023-03-03T01:10:13.766Z,1.60
2023-03-03T01:11:14.156Z,1.60
2023-03-03T01:12:13.157Z,1.70
2023-03-03T01:13:14.755Z,1.60
2023-03-03T01:14:13.728Z,1.80
2023-03-03T01:15:13.656Z,1.70
2023-03-03T01:16:13.652Z,1.70
2023-03-03T01:17:13.768Z,1.70
2023-03-03T01:18:14.474Z,1.80
2023-03-03T01:19:13.632Z,1.70
2023-03-03T01:20:13.578Z,2.00
2023-03-03T01:21:14.100Z,2.00
2023-03-03T01:22:13.150Z,2.00
2023-03-03T01:23:13.089Z,2.10
2023-03-03T01:24:14.364Z,2.00
2023-03-03T01:25:13.581Z,2.00
2023-03-03T01:26:13.528Z,1.80
2023-03-03T01:27:13.625Z,1.80
2023-03-03T01:28:13.655Z,2.00
2023-03-03T01:29:13.637Z,2.10
2023-03-03T01:30:13.579Z,2.40
2023-03-03T01:31:13.549Z,2.30
2023-03-03T01:32:13.708Z,2.00
2023-03-03T01:33:12.926Z,2.00
2023-03-03T01:34:12.896Z,2.10
2023-03-03T01:35:12.909Z,1.90
2023-03-03T01:36:12.902Z,1.70
2023-03-03T01:37:13.033Z,1.80
2023-03-03T01:38:12.891Z,1.90
2023-03-03T01:39:12.894Z,2.10
2023-03-03T01:40:14.095Z,2.00
2023-03-03T01:41:13.135Z,2.30
2023-03-03T01:42:13.068Z,1.90
2023-03-03T01:43:13.113Z,2.30
2023-03-03T01:44:13.051Z,2.30
2023-03-03T01:45:13.304Z,2.00
2023-03-03T01:46:13.392Z,1.80
2023-03-03T01:47:13.409Z,2.00
2023-03-03T01:48:13.372Z,2.10
2023-03-03T01:49:13.373Z,2.20
2023-03-03T01:50:13.446Z,2.00
2023-03-03T01:51:13.513Z,1.90
2023-03-03T01:52:14.041Z,2.10
2023-03-03T01:53:13.176Z,2.00
2023-03-03T01:54:13.403Z,2.10
2023-03-03T01:55:13.318Z,2.10
2023-03-03T01:56:13.248Z,2.00
2023-03-03T01:57:13.212Z,2.00
2023-03-03T01:58:13.242Z,2.10
2023-03-03T01:59:13.170Z,2.30
2023-03-03T02:00:13.180Z,2.20
2023-03-03T02:01:13.276Z,2.40
2023-03-03T02:02:13.163Z,2.30
2023-03-03T02:03:13.032Z,2.10
2023-03-03T02:04:12.938Z,2.30
2023-03-03T02:05:14.244Z,2.20
2023-03-03T02:06:13.163Z,2.00
2023-03-03T02:07:13.191Z,1.60
2023-03-03T02:08:13.419Z,1.90
2023-03-03T02:09:13.396Z,2.10
2023-03-03T02:10:13.945Z,1.90
2023-03-03T02:11:13.236Z,2.00
2023-03-03T02:12:13.482Z,2.20
2023-03-03T02:13:13.623Z,2.20
2023-03-03T02:14:14.016Z,1.80
2023-03-03T02:15:13.338Z,1.90
2023-03-03T02:16:13.425Z,1.90
2023-03-03T02:17:13.378Z,2.10
2023-03-03T02:18:13.315Z,2.50
2023-03-03T02:19:13.306Z,2.40
2023-03-03T02:20:13.325Z,2.40
2023-03-03T02:21:13.274Z,2.50
2023-03-03T02:22:13.277Z,2.40
2023-03-03T02:23:13.237Z,2.40
2023-03-03T02:24:13.154Z,2.10
2023-03-03T02:25:13.033Z,2.40
2023-03-03T02:26:12.920Z,2.50
2023-03-03T02:27:12.824Z,2.20
2023-03-03T02:28:13.855Z,2.20
2023-03-03T02:29:13.978Z,2.00
2023-03-03T02:30:13.035Z,2.00
2023-03-03T02:31:13.368Z,1.90
2023-03-03T02:32:13.825Z,1.90
2023-03-03T02:33:13.802Z,2.00
2023-03-03T02:34:13.756Z,2.10
2023-03-03T02:35:13.874Z,2.20
2023-03-03T02:36:13.902Z,2.10
2023-03-03T02:37:12.774Z,2.10
2023-03-03T02:38:13.829Z,2.10
2023-03-03T02:39:13.982Z,2.00
2023-03-03T02:40:12.925Z,1.80
2023-03-03T02:41:12.842Z,1.60
2023-03-03T02:42:13.770Z,1.60
2023-03-03T02:43:13.661Z,1.50
2023-03-03T02:44:13.712Z,1.40
2023-03-03T02:45:13.550Z,1.40
2023-03-03T02:46:13.618Z,1.60
2023-03-03T02:47:13.607Z,1.40
2023-03-03T02:48:13.847Z,1.70
2023-03-03T02:49:13.912Z,1.70
2023-03-03T02:50:12.898Z,1.80
2023-03-03T02:51:12.839Z,1.80
2023-03-03T02:52:13.806Z,1.70
2023-03-03T02:53:13.750Z,1.60
2023-03-03T02:54:13.937Z,1.40
2023-03-03T02:55:13.073Z,1.40
2023-03-03T02:56:13.160Z,1.60
2023-03-03T02:57:13.140Z,1.50
2023-03-03T02:58:13.134Z,1.70
2023-03-03T02:59:13.048Z,1.50
2023-03-03T03:00:14.175Z,1.70
2023-03-03T03:01:13.213Z,1.70
2023-03-03T03:02:13.484Z,1.60
2023-03-03T03:03:13.962Z,1.70
2023-03-03T03:04:12.925Z,1.50
2023-03-03T03:05:12.909Z,1.80
2023-03-03T03:06:12.731Z,1.80
2023-03-03T03:07:13.703Z,1.90
2023-03-03T03:08:13.820Z,2.00
2023-03-03T03:09:13.721Z,1.70
2023-03-03T03:10:13.702Z,1.90
2023-03-03T03:11:13.575Z,1.70
2023-03-03T03:12:13.824Z,1.50
2023-03-03T03:13:14.159Z,1.40
2023-03-03T03:14:13.182Z,1.90
2023-03-03T03:15:13.353Z,2.00
2023-03-03T03:16:13.332Z,2.00
2023-03-03T03:17:13.298Z,2.10
2023-03-03T03:18:13.355Z,2.10
2023-03-03T03:19:13.307Z,1.50
2023-03-03T03:20:13.559Z,1.40
2023-03-03T03:21:13.816Z,1.40
2023-03-03T03:22:14.135Z,1.40
2023-03-03T03:23:13.153Z,1.70
2023-03-03T03:24:13.154Z,1.60
2023-03-03T03:25:13.376Z,1.80
2023-03-03T03:26:13.490Z,1.70
2023-03-03T03:27:13.946Z,1.70
2023-03-03T03:28:12.891Z,1.60
2023-03-03T03:29:13.187Z,1.60
2023-03-03T03:30:13.079Z,1.70
2023-03-03T03:31:13.102Z,1.70
2023-03-03T03:32:13.390Z,1.50
2023-03-03T03:33:13.487Z,1.60
2023-03-03T03:34:13.704Z,2.10
2023-03-03T03:35:13.867Z,2.10
2023-03-03T03:36:13.883Z,2.00
2023-03-03T03:37:13.122Z,1.90
2023-03-03T03:38:13.098Z,1.90
2023-03-03T03:39:12.955Z,2.10
2023-03-03T03:40:13.071Z,2.30
2023-03-03T03:41:13.108Z,2.00
2023-03-03T03:42:13.214Z,1.70
2023-03-03T03:43:13.382Z,2.00
2023-03-03T03:44:13.419Z,2.00
2023-03-03T03:45:13.488Z,1.60
2023-03-03T03:46:13.477Z,1.90
2023-03-03T03:47:13.533Z,2.00
2023-03-03T03:48:13.393Z,2.00
2023-03-03T03:49:13.243Z,1.80
2023-03-03T03:50:13.393Z,1.90
2023-03-03T03:51:13.372Z,2.00
2023-03-03T03:52:13.399Z,2.20
2023-03-03T03:53:13.606Z,1.70
2023-03-03T03:54:13.596Z,1.90
2023-03-03T03:55:13.569Z,2.00
2023-03-03T03:56:13.718Z,1.80
2023-03-03T03:57:14.001Z,1.90
2023-03-03T03:58:13.020Z,2.00
2023-03-03T03:59:13.254Z,1.90
2023-03-03T04:00:13.377Z,2.00
2023-03-03T04:01:13.704Z,1.70
2023-03-03T04:02:13.804Z,1.60
2023-03-03T04:03:13.899Z,1.40
2023-03-03T04:04:12.988Z,1.40
2023-03-03T04:05:13.418Z,1.70
2023-03-03T04:06:13.475Z,1.70
2023-03-03T04:07:13.533Z,1.60
2023-03-03T04:08:13.648Z,1.50
2023-03-03T04:09:13.528Z,1.60
2023-03-03T04:10:13.422Z,1.70
2023-03-03T04:11:13.778Z,1.80
2023-03-03T04:12:14.053Z,1.70
2023-03-03T04:13:13.354Z,1.60
2023-03-03T04:14:13.486Z,1.90
2023-03-03T04:15:13.425Z,1.80
2023-03-03T04:16:13.538Z,1.80
2023-03-03T04:17:13.629Z,1.60
2023-03-03T04:18:13.587Z,1.70
2023-03-03T04:19:13.578Z,1.70
2023-03-03T04:20:13.468Z,1.40
2023-03-03T04:21:13.775Z,1.80
2023-03-03T04:22:13.789Z,1.90
2023-03-03T04:23:13.761Z,2.00
2023-03-03T04:24:13.698Z,2.10
2023-03-03T04:25:13.706Z,2.00
2023-03-03T04:26:13.752Z,2.10
2023-03-03T04:27:13.636Z,2.10
2023-03-03T04:28:13.688Z,2.10
2023-03-03T04:29:13.825Z,1.80
2023-03-03T04:30:13.908Z,1.80
2023-03-03T04:31:13.340Z,2.00
2023-03-03T04:32:13.378Z,1.90
2023-03-03T04:33:13.631Z,2.00
2023-03-03T04:34:13.543Z,1.80
2023-03-03T04:35:13.749Z,1.90
2023-03-03T04:36:15.048Z,2.10
2023-03-03T04:37:13.000Z,2.30
2023-03-03T04:38:13.279Z,2.10
2023-03-03T04:39:13.183Z,2.10
2023-03-03T04:40:13.442Z,1.90
2023-03-03T04:41:13.331Z,1.80
2023-03-03T04:42:18.639Z,1.70
2023-03-03T04:43:14.325Z,1.80
2023-03-03T04:44:13.322Z,1.70
2023-03-03T04:45:13.333Z,1.80
2023-03-03T04:46:14.624Z,1.90
2023-03-03T04:47:13.964Z,1.70
2023-03-03T04:48:13.061Z,1.70
2023-03-03T04:49:12.991Z,1.60
2023-03-03T04:50:12.950Z,1.60
2023-03-03T04:51:12.839Z,1.90
2023-03-03T04:52:13.830Z,1.70
2023-03-03T04:53:13.990Z,1.60
2023-03-03T04:54:13.163Z,1.90
2023-03-03T04:55:13.213Z,1.70
2023-03-03T04:56:13.110Z,1.50
2023-03-03T04:57:13.090Z,1.50
2023-03-03T04:58:13.493Z,1.70
2023-03-03T04:59:13.391Z,2.00
2023-03-03T05:00:13.329Z,2.00
2023-03-03T05:01:13.414Z,1.70
2023-03-03T05:02:13.410Z,2.00
2023-03-03T05:03:13.274Z,1.80
2023-03-03T05:04:13.191Z,1.90
2023-03-03T05:05:13.133Z,1.90
2023-03-03T05:06:13.263Z,1.70
2023-03-03T05:07:13.307Z,1.80
2023-03-03T05:08:13.520Z,2.10
2023-03-03T05:09:13.531Z,2.20
2023-03-03T05:10:13.480Z,2.40
2023-03-03T05:11:13.526Z,2.20
2023-03-03T05:12:13.759Z,2.40
2023-03-03T05:13:13.687Z,2.00
2023-03-03T05:14:13.762Z,1.90
2023-03-03T05:15:13.688Z,2.00
2023-03-03T05:16:13.808Z,2.00
2023-03-03T05:17:13.987Z,2.10
2023-03-03T05:18:12.985Z,2.00
2023-03-03T05:19:12.830Z,2.00
2023-03-03T05:20:26.073Z,2.00
2023-03-03T05:21:13.421Z,2.00
2023-03-03T05:22:14.615Z,1.80
2023-03-03T05:23:13.537Z,1.60
2023-03-03T05:24:13.436Z,1.60
2023-03-03T05:25:13.639Z,1.40
2023-03-03T05:26:13.592Z,1.50
2023-03-03T05:27:13.993Z,1.60
2023-03-03T05:28:12.890Z,1.40
2023-03-03T05:29:12.818Z,1.60
2023-03-03T05:30:13.847Z,1.30
2023-03-03T05:31:13.883Z,1.20
2023-03-03T05:32:12.979Z,1.40
2023-03-03T05:33:13.557Z,1.20
2023-03-03T05:34:13.791Z,1.30
2023-03-03T05:35:15.077Z,1.80
2023-03-03T05:36:13.389Z,1.70
2023-03-03T05:37:13.440Z,1.50
2023-03-03T05:38:13.480Z,1.10
2023-03-03T05:39:13.814Z,1.10
2023-03-03T05:40:14.904Z,1.50
2023-03-03T05:41:12.952Z,1.80
2023-03-03T05:42:12.898Z,1.50
2023-03-03T05:43:12.739Z,1.40
2023-03-03T05:44:20.671Z,1.40
2023-03-03T05:45:13.907Z,1.10
2023-03-03T05:46:13.018Z,1.20
2023-03-03T05:47:13.077Z,1.30
2023-03-03T05:48:13.292Z,1.30
2023-03-03T05:49:13.527Z,1.50
2023-03-03T05:50:13.561Z,1.60
2023-03-03T05:51:13.581Z,1.50
2023-03-03T05:52:13.491Z,1.70
2023-03-03T05:53:13.698Z,1.60
2023-03-03T05:54:13.780Z,1.90
2023-03-03T05:55:13.669Z,1.90
2023-03-03T05:56:13.613Z,2.00
2023-03-03T05:57:13.515Z,1.80
2023-03-03T05:58:13.704Z,2.00
2023-03-03T06:00:15.220Z,2.00
2023-03-03T06:01:13.396Z,2.30
2023-03-03T06:02:13.450Z,1.90
2023-03-03T06:03:13.430Z,2.00
2023-03-03T06:04:13.629Z,2.10
2023-03-03T06:05:14.018Z,2.00
2023-03-03T06:06:13.000Z,2.00
2023-03-03T06:07:13.050Z,2.10
2023-03-03T06:08:13.081Z,2.50
2023-03-03T06:09:12.968Z,2.20
2023-03-03T06:10:13.105Z,2.20
2023-03-03T06:11:13.175Z,2.00
2023-03-03T06:12:13.114Z,2.00
2023-03-03T06:13:13.527Z,2.00
2023-03-03T06:14:13.444Z,2.40
2023-03-03T06:15:13.445Z,2.10
2023-03-03T06:16:13.458Z,2.20
2023-03-03T06:17:13.680Z,2.40
2023-03-03T06:18:13.765Z,2.40
2023-03-03T06:19:14.120Z,2.30
2023-03-03T06:20:13.446Z,2.40
2023-03-03T06:21:13.443Z,2.40
2023-03-03T06:22:13.491Z,2.50
2023-03-03T06:23:18.483Z,2.10
2023-03-03T06:24:13.500Z,1.70
2023-03-03T06:25:18.794Z,1.70
2023-03-03T06:26:13.803Z,1.60
2023-03-03T06:27:14.087Z,2.00
2023-03-03T06:28:13.127Z,1.80
2023-03-03T06:29:15.276Z,1.90
2023-03-03T06:30:13.601Z,2.20
2023-03-03T06:31:15.719Z,2.10
2023-03-03T06:32:13.975Z,2.00
2023-03-03T06:33:12.968Z,2.10
2023-03-03T06:34:13.222Z,1.70
2023-03-03T06:35:13.404Z,1.30
2023-03-03T06:36:13.361Z,1.60
2023-03-03T06:37:13.488Z,1.50
2023-03-03T06:38:13.437Z,1.70
2023-03-03T06:39:13.502Z,1.70
2023-03-03T06:40:13.525Z,1.90
2023-03-03T06:41:13.401Z,1.80
2023-03-03T06:42:13.704Z,1.90
2023-03-03T06:43:18.818Z,2.10
2023-03-03T06:44:13.779Z,2.00
2023-03-03T06:45:13.716Z,2.10
2023-03-03T06:46:13.724Z,2.10
2023-03-03T06:47:13.745Z,1.70
2023-03-03T06:48:13.771Z,1.50
2023-03-03T06:49:13.732Z,1.70
2023-03-03T06:50:14.037Z,1.70
2023-03-03T06:51:13.172Z,1.60
2023-03-03T06:52:13.062Z,1.80
2023-03-03T06:53:13.028Z,2.00
2023-03-03T06:54:12.926Z,1.90
2023-03-03T06:55:13.026Z,1.90
2023-03-03T06:56:13.044Z,1.50
2023-03-03T06:57:12.934Z,1.50
2023-03-03T06:58:12.945Z,1.50
2023-03-03T06:59:13.015Z,1.70
2023-03-03T07:00:12.965Z,2.00
2023-03-03T07:01:13.269Z,1.90
2023-03-03T07:02:13.412Z,1.60
2023-03-03T07:03:13.732Z,2.00
2023-03-03T07:04:13.865Z,2.10
2023-03-03T07:05:13.947Z,1.60
2023-03-03T07:06:12.918Z,1.70
2023-03-03T07:07:13.174Z,1.50
2023-03-03T07:08:13.128Z,1.80
2023-03-03T07:09:13.040Z,1.50
2023-03-03T07:10:12.980Z,1.60
2023-03-03T07:11:13.059Z,1.70
2023-03-03T07:12:13.139Z,1.80
2023-03-03T07:13:13.267Z,1.80
2023-03-03T07:14:13.249Z,2.00
2023-03-03T07:15:13.457Z,1.90
2023-03-03T07:16:13.760Z,1.90
2023-03-03T07:17:13.864Z,2.10
2023-03-03T07:18:14.134Z,2.20
2023-03-03T07:19:13.069Z,2.10
2023-03-03T07:20:13.194Z,2.40
2023-03-03T07:21:13.182Z,2.10
2023-03-03T07:22:13.033Z,2.10
2023-03-03T07:23:12.890Z,2.30
2023-03-03T07:24:14.175Z,2.10
2023-03-03T07:25:13.048Z,2.40
2023-03-03T07:26:13.008Z,1.90
2023-03-03T07:27:13.485Z,1.90
2023-03-03T07:28:13.566Z,1.70
2023-03-03T07:29:14.699Z,1.60
2023-03-03T07:30:13.610Z,1.90
2023-03-03T07:31:13.666Z,1.80
2023-03-03T07:32:15.249Z,1.60
2023-03-03T07:33:13.298Z,1.70
2023-03-03T07:34:13.715Z,1.70
2023-03-03T07:35:13.801Z,1.50
2023-03-03T07:36:25.285Z,1.90
2023-03-03T07:37:13.317Z,1.40
2023-03-03T07:38:49.365Z,1.40
2023-03-03T07:39:13.425Z,1.60
2023-03-03T07:40:13.353Z,1.60
2023-03-03T07:41:13.266Z,1.90
2023-03-03T07:42:13.271Z,1.90
2023-03-03T07:43:13.231Z,1.60
2023-03-03T07:44:13.249Z,1.80
2023-03-03T07:45:13.185Z,1.60
2023-03-03T07:46:13.296Z,1.70
2023-03-03T07:47:13.336Z,1.50
2023-03-03T07:48:13.364Z,1.60
2023-03-03T07:49:13.340Z,1.60
2023-03-03T07:50:13.240Z,1.60
2023-03-03T07:51:13.110Z,1.60
2023-03-03T07:52:13.026Z,1.70
2023-03-03T07:53:13.251Z,1.90
2023-03-03T07:54:13.224Z,1.80
2023-03-03T07:55:13.191Z,1.70
2023-03-03T07:56:13.207Z,1.70
2023-03-03T07:57:13.208Z,2.00
2023-03-03T07:58:13.055Z,1.90
2023-03-03T07:59:13.078Z,2.10
2023-03-03T08:00:13.106Z,2.40
2023-03-03T08:01:13.001Z,2.30
2023-03-03T08:02:13.005Z,2.30
2023-03-03T08:03:13.038Z,1.80
2023-03-03T08:04:13.063Z,1.60
2023-03-03T08:05:13.203Z,2.00
2023-03-03T08:06:13.255Z,2.00
2023-03-03T08:07:13.160Z,2.00
2023-03-03T08:08:13.779Z,1.90
2023-03-03T08:09:14.057Z,2.10
2023-03-03T08:10:13.049Z,1.90
2023-03-03T08:11:12.992Z,1.80
2023-03-03T08:12:12.819Z,1.80
2023-03-03T08:13:13.759Z,1.90
2023-03-03T08:14:13.658Z,2.20
2023-03-03T08:15:13.649Z,2.50
2023-03-03T08:16:13.830Z,2.20
2023-03-03T08:17:13.821Z,2.40
2023-03-03T08:18:13.832Z,2.30
2023-03-03T08:19:14.034Z,2.60
2023-03-03T08:20:13.242Z,2.70
2023-03-03T08:21:13.436Z,2.60
2023-03-03T08:22:13.790Z,2.20
2023-03-03T08:23:13.875Z,2.00
2023-03-03T08:24:12.800Z,2.60
2023-03-03T08:25:13.731Z,2.20
2023-03-03T08:26:14.133Z,2.40
2023-03-03T08:27:13.249Z,2.30
2023-03-03T08:28:13.537Z,2.40
2023-03-03T08:29:13.574Z,2.30
2023-03-03T08:30:13.654Z,2.60
2023-03-03T08:31:22.622Z,2.10
2023-03-03T08:32:13.340Z,2.50
2023-03-03T08:33:13.734Z,2.90
2023-03-03T08:34:14.078Z,2.90
2023-03-03T08:35:13.326Z,2.90
2023-03-03T08:36:13.414Z,2.80
2023-03-03T08:37:14.681Z,2.40
2023-03-03T08:38:13.625Z,2.30
2023-03-03T08:39:13.541Z,2.50
2023-03-03T08:40:13.504Z,2.30
2023-03-03T08:41:13.637Z,2.40
2023-03-03T08:42:16.102Z,2.60
2023-03-03T08:43:13.527Z,2.10
2023-03-03T08:44:13.796Z,2.60
2023-03-03T08:45:13.845Z,2.80
2023-03-03T08:46:14.297Z,2.80
2023-03-03T08:47:13.367Z,2.60
2023-03-03T08:48:13.285Z,2.40
2023-03-03T08:49:13.491Z,2.40
2023-03-03T08:50:13.460Z,2.10
2023-03-03T08:51:13.454Z,2.30
2023-03-03T08:52:13.627Z,2.10
2023-03-03T08:53:13.716Z,2.00
2023-03-03T08:54:13.635Z,2.40
2023-03-03T08:55:13.665Z,2.60
2023-03-03T08:56:14.142Z,2.30
2023-03-03T08:57:13.596Z,2.50
2023-03-03T08:58:13.505Z,2.50
2023-03-03T08:59:13.485Z,2.60
2023-03-03T09:00:13.743Z,2.20
2023-03-03T09:01:13.710Z,1.90
2023-03-03T09:02:14.183Z,1.80
2023-03-03T09:03:13.174Z,2.30
2023-03-03T09:04:13.211Z,2.40
2023-03-03T09:05:13.310Z,2.00
2023-03-03T09:06:13.639Z,2.10
2023-03-03T09:07:13.655Z,2.20
2023-03-03T09:08:14.000Z,2.40
2023-03-03T09:09:13.143Z,2.30
2023-03-03T09:10:13.249Z,2.50
2023-03-03T09:11:13.504Z,2.50
2023-03-03T09:12:13.755Z,2.90
2023-03-03T09:13:13.977Z,3.20
2023-03-03T09:14:12.919Z,3.00
2023-03-03T09:15:12.890Z,2.70
2023-03-03T09:16:14.201Z,2.50
2023-03-03T09:17:13.398Z,2.50
2023-03-03T09:18:13.449Z,2.40
2023-03-03T09:19:13.476Z,2.90
2023-03-03T09:20:13.414Z,2.70
2023-03-03T09:21:13.315Z,2.40
2023-03-03T09:22:13.304Z,2.00
2023-03-03T09:23:13.621Z,2.30
2023-03-03T09:24:13.764Z,2.30
2023-03-03T09:25:13.775Z,2.20
2023-03-03T09:26:14.157Z,2.00
2023-03-03T09:27:13.582Z,2.30
2023-03-03T09:28:19.055Z,2.40
2023-03-03T09:29:13.055Z,2.40
2023-03-03T09:30:12.958Z,2.20
2023-03-03T09:31:13.226Z,2.30
2023-03-03T09:32:13.336Z,2.50
2023-03-03T09:33:13.255Z,2.70
2023-03-03T09:34:13.280Z,2.70
2023-03-03T09:35:13.648Z,2.80
2023-03-03T09:36:13.996Z,3.10
2023-03-03T09:37:15.381Z,3.10
2023-03-03T09:38:13.810Z,3.20
2023-03-03T09:39:13.834Z,3.40
2023-03-03T09:40:14.105Z,3.10
2023-03-03T09:41:13.103Z,3.10
2023-03-03T09:42:13.322Z,2.80
2023-03-03T09:43:13.267Z,2.80
2023-03-03T09:44:13.228Z,2.40
2023-03-03T09:45:13.298Z,2.30
2023-03-03T09:46:13.454Z,2.30
2023-03-03T09:47:13.847Z,2.50
2023-03-03T09:48:13.789Z,2.50
2023-03-03T09:49:14.228Z,2.50
2023-03-03T09:50:13.273Z,2.60
2023-03-03T09:51:14.401Z,2.40
2023-03-03T09:52:14.406Z,2.10
2023-03-03T09:53:13.398Z,2.00
2023-03-03T09:54:13.949Z,2.00
2023-03-03T09:55:19.545Z,2.10
2023-03-03T09:56:13.764Z,2.00
2023-03-03T09:57:13.647Z,2.10
2023-03-03T09:58:13.687Z,2.50
2023-03-03T09:59:13.935Z,2.30
2023-03-03T10:00:12.967Z,2.50
2023-03-03T10:01:12.941Z,2.50
2023-03-03T10:02:12.932Z,3.00
2023-03-03T10:03:13.064Z,2.80
2023-03-03T10:04:13.482Z,2.70
2023-03-03T10:05:14.636Z,2.80
2023-03-03T10:06:13.689Z,2.70
2023-03-03T10:07:13.747Z,3.10
2023-03-03T10:08:13.943Z,2.80
2023-03-03T10:09:13.243Z,2.50
2023-03-03T10:10:13.186Z,2.40
2023-03-03T10:11:13.029Z,2.50
2023-03-03T10:12:13.019Z,2.60
2023-03-03T10:13:13.112Z,2.40
2023-03-03T10:14:13.578Z,2.70
2023-03-03T10:15:13.803Z,3.00
2023-03-03T10:16:13.938Z,3.00
2023-03-03T10:17:13.301Z,3.30
2023-03-03T10:18:13.454Z,3.10
2023-03-03T10:19:28.575Z,3.10
2023-03-03T10:21:13.394Z,2.30
2023-03-03T10:22:13.414Z,2.30
2023-03-03T10:23:13.344Z,2.30
2023-03-03T10:24:13.651Z,2.40
2023-03-03T10:25:13.595Z,2.60
2023-03-03T10:26:13.666Z,2.20
2023-03-03T10:27:14.437Z,2.20
2023-03-03T10:28:13.637Z,2.30
2023-03-03T10:29:13.837Z,2.30
2023-03-03T10:30:13.883Z,2.50
2023-03-03T10:31:17.763Z,2.50
2023-03-03T10:32:13.873Z,2.70
2023-03-03T10:33:13.846Z,3.10
2023-03-03T10:34:13.390Z,3.50
2023-03-03T10:35:18.580Z,3.70
2023-03-03T10:36:13.663Z,4.10
2023-03-03T10:37:13.684Z,4.10
2023-03-03T10:38:14.025Z,3.80
2023-03-03T10:39:13.013Z,2.80
2023-03-03T10:40:12.986Z,2.90
2023-03-03T10:41:13.185Z,3.10
2023-03-03T10:42:13.337Z,3.30
2023-03-03T10:43:22.473Z,3.30
2023-03-03T10:44:14.079Z,3.30
2023-03-03T10:45:13.042Z,4.00
2023-03-03T10:46:13.183Z,4.20
2023-03-03T10:47:14.739Z,4.20
2023-03-03T10:48:13.923Z,4.10
2023-03-03T10:49:12.832Z,3.90
2023-03-03T10:50:13.792Z,3.70
2023-03-03T10:51:13.730Z,3.80
2023-03-03T10:52:14.295Z,2.90
2023-03-03T10:53:13.586Z,3.20
2023-03-03T10:54:13.422Z,3.30
2023-03-03T10:55:13.366Z,3.40
2023-03-03T10:56:13.592Z,3.30
2023-03-03T10:57:13.995Z,3.20
2023-03-03T10:58:12.963Z,3.80
2023-03-03T10:59:12.828Z,3.90
2023-03-03T11:00:13.771Z,3.70
2023-03-03T11:01:13.787Z,4.00
2023-03-03T11:02:14.041Z,4.20
2023-03-03T11:03:13.030Z,3.80
2023-03-03T11:04:13.010Z,3.50
2023-03-03T11:05:13.127Z,3.60
2023-03-03T11:06:13.142Z,3.40
2023-03-03T11:07:13.480Z,3.20
2023-03-03T11:08:13.495Z,3.30
2023-03-03T11:09:14.072Z,3.90
2023-03-03T11:10:13.091Z,3.40
2023-03-03T11:11:13.270Z,3.00
2023-03-03T11:12:13.900Z,3.10
2023-03-03T11:13:13.135Z,3.30
2023-03-03T11:14:13.274Z,3.30
2023-03-03T11:15:13.313Z,3.00
2023-03-03T11:16:13.330Z,2.80
2023-03-03T11:17:13.442Z,3.00
2023-03-03T11:18:13.482Z,3.10
2023-03-03T11:19:13.761Z,3.10
2023-03-03T11:20:14.105Z,3.00
2023-03-03T11:21:13.301Z,2.90
2023-03-03T11:22:13.742Z,3.30
2023-03-03T11:23:13.774Z,3.10
2023-03-03T11:24:14.279Z,3.40
2023-03-03T11:25:13.406Z,3.50
2023-03-03T11:26:18.496Z,3.70
2023-03-03T11:27:14.558Z,4.10
2023-03-03T11:28:13.628Z,3.80
2023-03-03T11:29:13.676Z,3.40
2023-03-03T11:30:13.754Z,3.50
2023-03-03T11:31:13.874Z,3.40
2023-03-03T11:32:12.890Z,3.30
2023-03-03T11:33:13.070Z,3.40
2023-03-03T11:34:13.260Z,3.70
2023-03-03T11:35:13.149Z,4.30
2023-03-03T11:36:13.120Z,4.10
2023-03-03T11:37:13.248Z,4.30
2023-03-03T11:38:13.230Z,4.40
2023-03-03T11:39:13.255Z,4.30
2023-03-03T11:40:13.196Z,4.60
2023-03-03T11:41:13.599Z,4.60
2023-03-03T11:42:13.546Z,4.90
2023-03-03T11:43:20.636Z,5.30
2023-03-03T11:44:13.724Z,5.20
2023-03-03T11:45:13.684Z,5.20
2023-03-03T11:46:13.784Z,5.40
2023-03-03T11:47:13.864Z,5.70
2023-03-03T11:48:13.951Z,5.40
2023-03-03T11:49:12.915Z,5.20
2023-03-03T11:50:13.005Z,4.40
2023-03-03T11:51:12.928Z,4.10
2023-03-03T11:52:13.076Z,4.20
2023-03-03T11:53:13.004Z,4.80
2023-03-03T11:54:13.040Z,5.20
2023-03-03T11:55:13.293Z,4.70
2023-03-03T11:56:13.418Z,4.40
2023-03-03T11:57:13.398Z,4.10
2023-03-03T11:58:13.462Z,4.40
2023-03-03T11:59:13.507Z,4.60
2023-03-03T12:00:13.436Z,4.30
2023-03-03T12:01:13.404Z,3.80
2023-03-03T12:02:13.489Z,4.50
2023-03-03T12:03:13.418Z,5.10
2023-03-03T12:04:13.292Z,5.30
2023-03-03T12:05:13.494Z,5.00
2023-03-03T12:06:13.526Z,4.50
2023-03-03T12:07:19.158Z,4.40
2023-03-03T12:08:13.693Z,4.80
2023-03-03T12:09:13.653Z,4.40
2023-03-03T12:10:14.784Z,3.90
2023-03-03T12:11:13.645Z,4.00
2023-03-03T12:12:14.273Z,4.30
2023-03-03T12:13:13.262Z,4.90
2023-03-03T12:14:13.526Z,5.10
2023-03-03T12:15:13.737Z,4.90
2023-03-03T12:16:14.198Z,5.10
2023-03-03T12:17:13.279Z,4.60
2023-03-03T12:18:13.487Z,4.20
2023-03-03T12:19:13.761Z,4.00
2023-03-03T12:20:13.874Z,3.80
2023-03-03T12:21:14.348Z,3.80
2023-03-03T12:22:13.413Z,3.60
2023-03-03T12:23:13.564Z,4.00
2023-03-03T12:24:13.584Z,4.10
2023-03-03T12:25:13.639Z,4.10
2023-03-03T12:26:13.562Z,4.60
2023-03-03T12:27:13.594Z,4.50
2023-03-03T12:28:14.657Z,4.50
2023-03-03T12:29:14.177Z,4.50
2023-03-03T12:30:13.325Z,4.60
2023-03-03T12:31:13.359Z,4.30
2023-03-03T12:32:13.892Z,4.60
2023-03-03T12:33:14.600Z,5.10
2023-03-03T12:34:13.704Z,5.30
2023-03-03T12:35:13.860Z,5.60
2023-03-03T12:36:14.021Z,5.70
2023-03-03T12:37:13.089Z,5.90
2023-03-03T12:38:13.060Z,5.50
2023-03-03T12:39:13.677Z,5.30
2023-03-03T12:40:13.662Z,5.00
2023-03-03T12:41:19.638Z,4.50
2023-03-03T12:42:13.720Z,4.90
2023-03-03T12:43:13.915Z,5.40
2023-03-03T12:44:12.929Z,5.60
2023-03-03T12:45:13.195Z,5.50
2023-03-03T12:46:14.506Z,4.50
2023-03-03T12:47:13.579Z,4.00
2023-03-03T12:48:13.560Z,4.50
2023-03-03T12:49:13.527Z,4.00
2023-03-03T12:50:13.462Z,4.30
2023-03-03T12:51:13.606Z,4.90
2023-03-03T12:52:14.575Z,4.70
2023-03-03T12:53:13.799Z,4.60
2023-03-03T12:54:13.941Z,4.10
2023-03-03T12:55:12.873Z,4.30
2023-03-03T12:56:12.995Z,4.80
2023-03-03T12:57:12.953Z,5.50
2023-03-03T12:58:13.097Z,5.80
2023-03-03T12:59:13.178Z,5.70
2023-03-03T13:00:13.131Z,5.60
2023-03-03T13:01:13.091Z,5.00
2023-03-03T13:02:13.107Z,5.00
2023-03-03T13:03:13.038Z,5.00
2023-03-03T13:04:13.318Z,5.30
2023-03-03T13:05:13.521Z,5.90
2023-03-03T13:06:13.749Z,5.40
2023-03-03T13:07:13.906Z,4.80
2023-03-03T13:08:13.153Z,4.50
2023-03-03T13:09:13.195Z,4.20
2023-03-03T13:10:13.419Z,4.10
2023-03-03T13:11:13.942Z,4.40
2023-03-03T13:12:12.934Z,4.80
2023-03-03T13:13:13.245Z,4.90
2023-03-03T13:14:13.110Z,5.60
2023-03-03T13:15:15.931Z,5.30
2023-03-03T13:16:16.860Z,5.10
2023-03-03T13:17:13.449Z,5.00
2023-03-03T13:18:13.804Z,4.80
2023-03-03T13:19:13.805Z,4.70
2023-03-03T13:20:13.882Z,4.90